createdAt,value
2023-02-12T00:00:06.902Z,996.97
2023-02-12T00:01:06.778Z,996.95
2023-02-12T00:02:06.844Z,996.93
2023-02-12T00:03:06.846Z,996.89
2023-02-12T00:04:06.732Z,996.93
2023-02-12T00:05:06.723Z,996.84
2023-02-12T00:06:06.709Z,996.75
2023-02-12T00:07:06.694Z,996.72
2023-02-12T00:08:06.671Z,996.71
2023-02-12T00:09:06.682Z,996.69
2023-02-12T00:10:06.655Z,996.69
2023-02-12T00:11:06.630Z,996.70
2023-02-12T00:12:06.621Z,996.80
2023-02-12T00:13:06.612Z,996.88
2023-02-12T00:14:06.596Z,996.79
2023-02-12T00:15:06.809Z,996.91
2023-02-12T00:16:06.675Z,996.83
2023-02-12T00:17:06.560Z,996.84
2023-02-12T00:18:06.547Z,996.79
2023-02-12T00:19:06.534Z,996.84
2023-02-12T00:20:06.514Z,996.85
2023-02-12T00:21:06.508Z,996.79
2023-02-12T00:22:06.486Z,996.78
2023-02-12T00:23:06.476Z,996.80
2023-02-12T00:24:06.459Z,996.78
2023-02-12T00:25:06.447Z,996.84
2023-02-12T00:26:06.440Z,996.76
2023-02-12T00:27:07.235Z,996.87
2023-02-12T00:28:06.459Z,996.72
2023-02-12T00:29:06.395Z,996.73
2023-02-12T00:30:06.381Z,996.72
2023-02-12T00:31:06.531Z,996.78
2023-02-12T00:32:06.355Z,996.81
2023-02-12T00:33:06.349Z,996.84
2023-02-12T00:34:06.326Z,996.79
2023-02-12T00:35:06.314Z,996.79
2023-02-12T00:36:06.306Z,996.87
2023-02-12T00:37:06.488Z,996.90
2023-02-12T00:38:06.272Z,996.93
2023-02-12T00:39:06.265Z,996.99
2023-02-12T00:40:06.247Z,996.95
2023-02-12T00:41:06.243Z,996.96
2023-02-12T00:42:06.225Z,997.05
2023-02-12T00:43:06.258Z,996.92
2023-02-12T00:44:06.195Z,996.97
2023-02-12T00:45:06.185Z,996.88
2023-02-12T00:46:06.192Z,996.97
2023-02-12T00:47:06.185Z,996.91
2023-02-12T00:48:06.138Z,996.91
2023-02-12T00:49:06.130Z,996.90
2023-02-12T00:50:06.125Z,996.91
2023-02-12T00:51:06.096Z,996.90
2023-02-12T00:52:06.087Z,997.00
2023-02-12T00:53:06.076Z,997.00
2023-02-12T00:54:06.064Z,996.96
2023-02-12T00:55:06.045Z,996.99
2023-02-12T00:56:06.038Z,996.90
2023-02-12T00:57:06.024Z,996.84
2023-02-12T00:58:06.008Z,996.89
2023-02-12T00:59:05.998Z,996.90
2023-02-12T01:00:05.985Z,996.87
2023-02-12T01:01:05.993Z,996.92
2023-02-12T01:02:05.956Z,996.92
2023-02-12T01:03:05.973Z,996.95
2023-02-12T01:04:05.928Z,996.98
2023-02-12T01:05:05.939Z,996.93
2023-02-12T01:06:05.904Z,996.98
2023-02-12T01:07:05.893Z,997.05
2023-02-12T01:08:05.886Z,996.97
2023-02-12T01:09:05.865Z,997.00
2023-02-12T01:10:05.857Z,996.98
2023-02-12T01:11:05.850Z,997.05
2023-02-12T01:12:05.826Z,997.14
2023-02-12T01:13:05.815Z,997.05
2023-02-12T01:14:05.799Z,997.06
2023-02-12T01:15:05.785Z,997.06
2023-02-12T01:16:05.839Z,997.06
2023-02-12T01:17:05.763Z,997.06
2023-02-12T01:18:05.753Z,997.02
2023-02-12T01:19:05.761Z,996.93
2023-02-12T01:20:05.721Z,996.95
2023-02-12T01:21:05.715Z,996.99
2023-02-12T01:22:05.708Z,996.94
2023-02-12T01:23:05.692Z,996.93
2023-02-12T01:24:05.666Z,996.93
2023-02-12T01:25:05.658Z,996.96
2023-02-12T01:26:05.643Z,996.97
2023-02-12T01:27:05.634Z,997.02
2023-02-12T01:28:05.653Z,997.00
2023-02-12T01:29:05.616Z,997.00
2023-02-12T01:30:05.589Z,996.95
2023-02-12T01:31:05.698Z,996.92
2023-02-12T01:32:05.754Z,996.95
2023-02-12T01:33:05.550Z,996.95
2023-02-12T01:34:05.539Z,996.95
2023-02-12T01:35:05.554Z,996.93
2023-02-12T01:36:05.513Z,996.95
2023-02-12T01:37:05.505Z,996.93
2023-02-12T01:38:05.491Z,996.86
2023-02-12T01:39:05.490Z,996.96
2023-02-12T01:40:05.480Z,996.99
2023-02-12T01:41:05.454Z,996.97
2023-02-12T01:42:05.434Z,996.97
2023-02-12T01:43:05.420Z,996.98
2023-02-12T01:44:05.410Z,996.89
2023-02-12T01:45:05.396Z,996.90
2023-02-12T01:46:05.518Z,996.97
2023-02-12T01:47:05.363Z,996.94
2023-02-12T01:48:05.352Z,996.91
2023-02-12T01:49:05.381Z,996.96
2023-02-12T01:50:05.324Z,996.97
2023-02-12T01:51:05.345Z,997.08
2023-02-12T01:52:05.294Z,997.10
2023-02-12T01:53:05.293Z,997.10
2023-02-12T01:54:05.277Z,997.16
2023-02-12T01:55:05.268Z,997.14
2023-02-12T01:56:05.246Z,997.17
2023-02-12T01:57:05.240Z,997.19
2023-02-12T01:58:05.229Z,997.13
2023-02-12T01:59:05.366Z,997.17
2023-02-12T02:00:05.197Z,997.13
2023-02-12T02:01:05.177Z,997.11
2023-02-12T02:02:05.257Z,997.07
2023-02-12T02:03:05.240Z,997.12
2023-02-12T02:04:05.136Z,997.09
2023-02-12T02:05:05.124Z,997.06
2023-02-12T02:06:05.111Z,997.06
2023-02-12T02:07:05.132Z,997.06
2023-02-12T02:08:05.092Z,997.02
2023-02-12T02:09:05.084Z,997.05
2023-02-12T02:10:05.413Z,997.02
2023-02-12T02:11:05.045Z,997.04
2023-02-12T02:12:05.051Z,997.05
2023-02-12T02:13:05.020Z,997.03
2023-02-12T02:14:05.005Z,996.93
2023-02-12T02:15:04.993Z,996.96
2023-02-12T02:16:05.000Z,997.00
2023-02-12T02:17:04.983Z,997.03
2023-02-12T02:18:04.946Z,996.96
2023-02-12T02:19:04.935Z,996.94
2023-02-12T02:20:04.921Z,996.96
2023-02-12T02:21:04.908Z,996.94
2023-02-12T02:22:04.900Z,996.93
2023-02-12T02:23:04.909Z,996.87
2023-02-12T02:24:04.868Z,996.92
2023-02-12T02:25:04.862Z,996.97
2023-02-12T02:26:04.844Z,996.90
2023-02-12T02:27:04.830Z,996.88
2023-02-12T02:28:04.838Z,996.93
2023-02-12T02:29:04.820Z,996.91
2023-02-12T02:30:04.790Z,996.87
2023-02-12T02:31:04.874Z,996.87
2023-02-12T02:32:04.807Z,996.77
2023-02-12T02:33:04.746Z,996.79
2023-02-12T02:34:04.732Z,996.82
2023-02-12T02:35:04.717Z,996.79
2023-02-12T02:36:04.706Z,996.87
2023-02-12T02:37:04.692Z,996.86
2023-02-12T02:38:04.677Z,996.79
2023-02-12T02:39:04.698Z,996.80
2023-02-12T02:40:05.018Z,996.84
2023-02-12T02:41:04.648Z,996.74
2023-02-12T02:42:04.629Z,996.77
2023-02-12T02:43:04.619Z,996.76
2023-02-12T02:44:04.597Z,996.71
2023-02-12T02:45:04.585Z,996.74
2023-02-12T02:46:04.587Z,996.68
2023-02-12T02:47:04.556Z,996.60
2023-02-12T02:48:04.549Z,996.71
2023-02-12T02:49:04.539Z,996.62
2023-02-12T02:50:04.525Z,996.62
2023-02-12T02:51:04.518Z,996.65
2023-02-12T02:52:04.508Z,996.62
2023-02-12T02:53:04.484Z,996.60
2023-02-12T02:54:04.469Z,996.61
2023-02-12T02:55:04.486Z,996.60
2023-02-12T02:56:04.440Z,996.66
2023-02-12T02:57:04.428Z,996.66
2023-02-12T02:58:04.409Z,996.62
2023-02-12T02:59:04.450Z,996.62
2023-02-12T03:00:04.383Z,996.66
2023-02-12T03:01:04.440Z,996.64
2023-02-12T03:02:04.355Z,996.62
2023-02-12T03:03:04.504Z,996.65
2023-02-12T03:04:04.328Z,996.58
2023-02-12T03:05:04.328Z,996.63
2023-02-12T03:06:04.314Z,996.59
2023-02-12T03:07:04.308Z,996.61
2023-02-12T03:08:04.278Z,996.64
2023-02-12T03:09:04.268Z,996.60
2023-02-12T03:10:04.264Z,996.57
2023-02-12T03:11:04.268Z,996.62
2023-02-12T03:12:04.225Z,996.58
2023-02-12T03:13:04.212Z,996.59
2023-02-12T03:14:04.200Z,996.53
2023-02-12T03:15:04.180Z,996.61
2023-02-12T03:16:04.191Z,996.58
2023-02-12T03:17:04.158Z,996.58
2023-02-12T03:18:04.142Z,996.60
2023-02-12T03:19:04.131Z,996.64
2023-02-12T03:20:04.117Z,996.52
2023-02-12T03:21:04.098Z,996.53
2023-02-12T03:22:04.089Z,996.54
2023-02-12T03:23:04.087Z,996.49
2023-02-12T03:24:04.264Z,996.63
2023-02-12T03:25:04.050Z,996.56
2023-02-12T03:26:04.036Z,996.54
2023-02-12T03:27:04.050Z,996.68
2023-02-12T03:28:04.049Z,996.69
2023-02-12T03:29:04.001Z,996.68
2023-02-12T03:30:04.001Z,996.61
2023-02-12T03:31:04.065Z,996.66
2023-02-12T03:32:03.972Z,996.63
2023-02-12T03:33:03.967Z,996.65
2023-02-12T03:34:03.936Z,996.68
2023-02-12T03:35:03.924Z,996.73
2023-02-12T03:36:03.903Z,996.71
2023-02-12T03:37:03.910Z,996.72
2023-02-12T03:38:03.885Z,996.80
2023-02-12T03:39:03.870Z,996.80
2023-02-12T03:40:03.864Z,996.82
2023-02-12T03:41:03.838Z,996.76
2023-02-12T03:42:03.829Z,996.81
2023-02-12T03:43:03.847Z,996.77
2023-02-12T03:44:03.811Z,996.86
2023-02-12T03:45:03.799Z,996.76
2023-02-12T03:46:03.991Z,996.79
2023-02-12T03:47:03.760Z,996.72
2023-02-12T03:48:03.748Z,996.75
2023-02-12T03:49:03.729Z,996.79
2023-02-12T03:50:03.725Z,996.74
2023-02-12T03:51:03.723Z,996.73
2023-02-12T03:52:03.703Z,996.71
2023-02-12T03:53:03.681Z,996.69
2023-02-12T03:54:03.670Z,996.67
2023-02-12T03:55:03.653Z,996.70
2023-02-12T03:56:03.641Z,996.72
2023-02-12T03:57:03.635Z,996.69
2023-02-12T03:58:03.612Z,996.68
2023-02-12T03:59:03.637Z,996.69
2023-02-12T04:00:03.592Z,996.69
2023-02-12T04:01:03.642Z,996.77
2023-02-12T04:02:03.642Z,996.69
2023-02-12T04:03:03.541Z,996.77
2023-02-12T04:04:03.562Z,996.79
2023-02-12T04:05:03.515Z,996.75
2023-02-12T04:06:03.499Z,996.78
2023-02-12T04:07:03.491Z,996.79
2023-02-12T04:08:03.488Z,996.76
2023-02-12T04:09:03.466Z,996.73
2023-02-12T04:10:03.449Z,996.76
2023-02-12T04:11:03.474Z,996.79
2023-02-12T04:12:03.420Z,996.84
2023-02-12T04:13:03.409Z,996.82
2023-02-12T04:14:03.403Z,996.81
2023-02-12T04:15:03.422Z,996.86
2023-02-12T04:16:03.360Z,996.87
2023-02-12T04:17:03.420Z,997.00
2023-02-12T04:18:03.339Z,996.99
2023-02-12T04:19:03.322Z,997.02
2023-02-12T04:20:03.305Z,997.01
2023-02-12T04:21:03.358Z,996.94
2023-02-12T04:22:03.277Z,996.92
2023-02-12T04:23:03.272Z,996.98
2023-02-12T04:24:03.257Z,996.93
2023-02-12T04:25:03.246Z,997.03
2023-02-12T04:26:03.238Z,997.00
2023-02-12T04:27:03.216Z,996.98
2023-02-12T04:28:03.226Z,996.99
2023-02-12T04:29:03.198Z,997.07
2023-02-12T04:30:03.174Z,997.00
2023-02-12T04:31:03.391Z,997.06
2023-02-12T04:32:03.173Z,996.99
2023-02-12T04:33:03.149Z,997.05
2023-02-12T04:34:03.124Z,997.07
2023-02-12T04:35:03.193Z,997.01
2023-02-12T04:36:03.094Z,997.08
2023-02-12T04:37:03.083Z,997.04
2023-02-12T04:38:03.073Z,997.04
2023-02-12T04:39:03.057Z,997.10
2023-02-12T04:40:03.078Z,997.11
2023-02-12T04:41:03.034Z,997.07
2023-02-12T04:42:03.067Z,997.08
2023-02-12T04:43:03.201Z,997.09
2023-02-12T04:44:02.988Z,997.02
2023-02-12T04:45:02.980Z,997.02
2023-02-12T04:46:02.991Z,997.03
2023-02-12T04:47:02.980Z,997.06
2023-02-12T04:48:02.939Z,997.05
2023-02-12T04:49:02.925Z,997.00
2023-02-12T04:50:02.918Z,997.01
2023-02-12T04:51:02.904Z,997.06
2023-02-12T04:52:02.885Z,997.13
2023-02-12T04:53:03.020Z,997.08
2023-02-12T04:54:02.885Z,997.08
2023-02-12T04:55:02.844Z,997.07
2023-02-12T04:56:02.850Z,997.08
2023-02-12T04:57:02.821Z,997.09
2023-02-12T04:58:02.824Z,997.07
2023-02-12T04:59:02.801Z,997.07
2023-02-12T05:00:02.782Z,997.04
2023-02-12T05:01:02.789Z,996.97
2023-02-12T05:02:02.760Z,996.96
2023-02-12T05:03:02.767Z,996.98
2023-02-12T05:04:02.730Z,997.07
2023-02-12T05:05:02.823Z,997.02
2023-02-12T05:06:02.697Z,997.06
2023-02-12T05:07:02.687Z,997.08
2023-02-12T05:08:02.670Z,997.08
2023-02-12T05:09:02.659Z,997.02
2023-02-12T05:10:02.644Z,996.93
2023-02-12T05:11:02.632Z,997.05
2023-02-12T05:12:02.624Z,996.94
2023-02-12T05:13:02.601Z,997.08
2023-02-12T05:14:02.584Z,997.04
2023-02-12T05:15:02.582Z,997.10
2023-02-12T05:16:02.653Z,997.06
2023-02-12T05:17:02.555Z,997.06
2023-02-12T05:18:02.545Z,997.01
2023-02-12T05:19:02.554Z,996.95
2023-02-12T05:20:02.506Z,996.95
2023-02-12T05:21:02.499Z,996.98
2023-02-12T05:22:02.478Z,996.98
2023-02-12T05:23:02.461Z,996.95
2023-02-12T05:24:02.454Z,996.90
2023-02-12T05:25:02.548Z,996.86
2023-02-12T05:26:02.428Z,996.93
2023-02-12T05:27:02.417Z,996.93
2023-02-12T05:28:02.431Z,996.92
2023-02-12T05:29:02.487Z,997.01
2023-02-12T05:30:02.376Z,996.98
2023-02-12T05:31:02.476Z,996.95
2023-02-12T05:32:02.559Z,996.95
2023-02-12T05:33:02.344Z,997.00
2023-02-12T05:34:02.323Z,996.99
2023-02-12T05:35:02.373Z,997.02
2023-02-12T05:36:02.288Z,997.03
2023-02-12T05:37:02.274Z,997.04
2023-02-12T05:38:02.264Z,997.03
2023-02-12T05:39:02.257Z,997.01
2023-02-12T05:40:02.246Z,997.03
2023-02-12T05:41:02.220Z,996.99
2023-02-12T05:42:02.211Z,996.97
2023-02-12T05:43:02.197Z,997.05
2023-02-12T05:44:02.182Z,996.97
2023-02-12T05:45:02.165Z,996.99
2023-02-12T05:46:02.176Z,997.03
2023-02-12T05:47:02.149Z,996.97
2023-02-12T05:48:02.129Z,997.00
2023-02-12T05:49:02.114Z,996.97
2023-02-12T05:50:02.101Z,996.99
2023-02-12T05:51:02.126Z,997.01
2023-02-12T05:52:02.073Z,997.00
2023-02-12T05:53:02.053Z,996.96
2023-02-12T05:54:02.045Z,997.02
2023-02-12T05:55:02.027Z,996.95
2023-02-12T05:56:02.019Z,996.91
2023-02-12T05:57:02.009Z,996.97
2023-02-12T05:58:02.001Z,997.01
2023-02-12T05:59:01.978Z,996.98
2023-02-12T06:00:01.966Z,997.01
2023-02-12T06:01:01.959Z,997.02
2023-02-12T06:02:01.934Z,997.03
2023-02-12T06:03:01.928Z,996.97
2023-02-12T06:04:02.069Z,996.96
2023-02-12T06:05:01.901Z,997.04
2023-02-12T06:06:01.881Z,996.93
2023-02-12T06:07:01.894Z,997.01
2023-02-12T06:08:01.850Z,996.99
2023-02-12T06:09:01.844Z,997.04
2023-02-12T06:10:01.823Z,997.04
2023-02-12T06:11:01.813Z,997.01
2023-02-12T06:12:01.801Z,997.00
2023-02-12T06:13:01.785Z,997.02
2023-02-12T06:14:01.809Z,997.02
2023-02-12T06:15:01.762Z,997.06
2023-02-12T06:16:01.862Z,997.04
2023-02-12T06:17:01.736Z,997.03
2023-02-12T06:18:01.718Z,997.05
2023-02-12T06:19:01.709Z,997.08
2023-02-12T06:20:01.732Z,996.98
2023-02-12T06:21:01.680Z,997.06
2023-02-12T06:22:01.665Z,997.01
2023-02-12T06:23:01.676Z,997.03
2023-02-12T06:24:01.654Z,997.04
2023-02-12T06:25:01.623Z,997.09
2023-02-12T06:26:01.618Z,997.09
2023-02-12T06:27:01.594Z,997.07
2023-02-12T06:28:01.610Z,997.04
2023-02-12T06:29:01.581Z,997.05
2023-02-12T06:30:01.557Z,997.07
2023-02-12T06:31:01.717Z,997.06
2023-02-12T06:32:01.774Z,996.99
2023-02-12T06:33:01.543Z,997.04
2023-02-12T06:34:01.510Z,997.12
2023-02-12T06:35:01.493Z,997.09
2023-02-12T06:36:01.481Z,997.10
2023-02-12T06:37:01.496Z,997.08
2023-02-12T06:38:01.458Z,997.10
2023-02-12T06:39:01.476Z,997.10
2023-02-12T06:40:01.429Z,997.15
2023-02-12T06:41:01.423Z,997.17
2023-02-12T06:42:01.406Z,997.17
2023-02-12T06:43:01.381Z,997.17
2023-02-12T06:44:01.365Z,997.18
2023-02-12T06:45:01.361Z,997.14
2023-02-12T06:46:01.340Z,997.13
2023-02-12T06:47:01.463Z,997.19
2023-02-12T06:48:01.325Z,997.24
2023-02-12T06:49:01.314Z,997.17
2023-02-12T06:50:01.289Z,997.16
2023-02-12T06:51:01.277Z,997.20
2023-02-12T06:52:03.311Z,997.18
2023-02-12T06:53:01.263Z,997.20
2023-02-12T06:54:01.237Z,997.16
2023-02-12T06:55:01.251Z,997.18
2023-02-12T06:56:01.213Z,997.24
2023-02-12T06:57:01.195Z,997.21
2023-02-12T06:58:01.182Z,997.27
2023-02-12T06:59:01.240Z,997.22
2023-02-12T07:00:01.157Z,997.23
2023-02-12T07:01:01.210Z,997.26
2023-02-12T07:02:01.376Z,997.23
2023-02-12T07:03:01.122Z,997.24
2023-02-12T07:04:01.204Z,997.27
2023-02-12T07:05:01.093Z,997.27
2023-02-12T07:06:01.077Z,997.27
2023-02-12T07:07:01.061Z,997.25
2023-02-12T07:08:01.039Z,997.33
2023-02-12T07:09:01.041Z,997.33
2023-02-12T07:10:01.028Z,997.27
2023-02-12T07:11:01.033Z,997.32
2023-02-12T07:12:01.007Z,997.32
2023-02-12T07:13:00.988Z,997.29
2023-02-12T07:14:00.964Z,997.30
2023-02-12T07:15:00.956Z,997.35
2023-02-12T07:16:00.955Z,997.31
2023-02-12T07:17:00.925Z,997.26
2023-02-12T07:18:00.925Z,997.29
2023-02-12T07:19:00.900Z,997.28
2023-02-12T07:20:00.897Z,997.30
2023-02-12T07:21:00.918Z,997.31
2023-02-12T07:22:00.850Z,997.30
2023-02-12T07:23:00.841Z,997.31
2023-02-12T07:24:00.831Z,997.34
2023-02-12T07:25:00.810Z,997.38
2023-02-12T07:26:00.799Z,997.40
2023-02-12T07:27:00.818Z,997.41
2023-02-12T07:28:00.803Z,997.42
2023-02-12T07:29:00.766Z,997.37
2023-02-12T07:30:00.767Z,997.36
2023-02-12T07:31:00.780Z,997.40
2023-02-12T07:32:00.790Z,997.39
2023-02-12T07:33:00.708Z,997.44
2023-02-12T07:34:00.705Z,997.41
2023-02-12T07:35:00.676Z,997.38
2023-02-12T07:36:00.666Z,997.38
2023-02-12T07:37:00.657Z,997.38
2023-02-12T07:38:00.644Z,997.35
2023-02-12T07:39:00.702Z,997.37
2023-02-12T07:40:00.727Z,997.37
2023-02-12T07:41:00.666Z,997.28
2023-02-12T07:42:00.645Z,997.28
2023-02-12T07:43:00.649Z,997.25
2023-02-12T07:44:00.573Z,997.25
2023-02-12T07:45:00.719Z,997.35
2023-02-12T07:46:00.575Z,997.36
2023-02-12T07:47:00.519Z,997.25
2023-02-12T07:48:00.503Z,997.31
2023-02-12T07:49:00.692Z,997.26
2023-02-12T07:50:00.477Z,997.36
2023-02-12T07:51:00.497Z,997.37
2023-02-12T07:52:00.455Z,997.38
2023-02-12T07:53:00.446Z,997.33
2023-02-12T07:54:00.435Z,997.29
2023-02-12T07:55:00.668Z,997.29
2023-02-12T07:56:00.406Z,997.23
2023-02-12T07:57:00.394Z,997.24
2023-02-12T07:58:00.377Z,997.21
2023-02-12T07:59:00.395Z,997.18
2023-02-12T08:00:00.348Z,997.11
2023-02-12T08:01:00.333Z,997.11
2023-02-12T08:02:00.379Z,997.13
2023-02-12T08:03:00.704Z,997.13
2023-02-12T08:04:00.367Z,997.15
2023-02-12T08:05:00.281Z,997.14
2023-02-12T08:06:00.278Z,997.18
2023-02-12T08:07:00.259Z,997.19
2023-02-12T08:08:00.241Z,997.19
2023-02-12T08:09:00.223Z,997.21
2023-02-12T08:10:00.209Z,997.20
2023-02-12T08:11:00.200Z,997.25
2023-02-12T08:12:00.179Z,997.18
2023-02-12T08:13:00.169Z,997.14
2023-02-12T08:14:00.151Z,997.20
2023-02-12T08:15:00.176Z,997.17
2023-02-12T08:16:00.248Z,997.10
2023-02-12T08:17:00.121Z,997.16
2023-02-12T08:18:00.168Z,997.15
2023-02-12T08:19:14.562Z,997.18
2023-02-12T08:20:01.108Z,997.22
2023-02-12T08:21:00.086Z,997.19
2023-02-12T08:22:00.056Z,997.18
2023-02-12T08:23:00.037Z,997.19
2023-02-12T08:24:00.018Z,997.22
2023-02-12T08:25:00.002Z,997.20
2023-02-12T08:25:59.991Z,997.22
2023-02-12T08:26:59.974Z,997.15
2023-02-12T08:27:59.991Z,997.21
2023-02-12T08:28:59.948Z,997.14
2023-02-12T08:30:00.238Z,997.16
2023-02-12T08:31:00.008Z,997.18
2023-02-12T08:32:00.037Z,997.18
2023-02-12T08:32:59.901Z,997.19
2023-02-12T08:33:59.887Z,997.16
2023-02-12T08:34:59.877Z,997.15
2023-02-12T08:36:00.353Z,997.17
2023-02-12T08:36:59.840Z,997.14
2023-02-12T08:37:59.835Z,997.11
2023-02-12T08:38:59.815Z,997.13
2023-02-12T08:39:59.802Z,997.10
2023-02-12T08:40:59.847Z,997.15
2023-02-12T08:41:59.772Z,997.16
2023-02-12T08:42:59.760Z,997.14
2023-02-12T08:43:59.749Z,997.15
2023-02-12T08:44:59.736Z,997.15
2023-02-12T08:45:59.757Z,997.18
2023-02-12T08:46:59.725Z,997.16
2023-02-12T08:47:59.697Z,997.05
2023-02-12T08:48:59.679Z,997.08
2023-02-12T08:49:59.681Z,997.08
2023-02-12T08:50:59.655Z,997.12
2023-02-12T08:51:59.986Z,997.11
2023-02-12T08:52:59.622Z,997.10
2023-02-12T08:53:59.607Z,997.08
2023-02-12T08:54:59.621Z,997.11
2023-02-12T08:55:59.576Z,997.02
2023-02-12T08:56:59.663Z,997.13
2023-02-12T08:57:59.553Z,997.13
2023-02-12T08:58:59.939Z,997.11
2023-02-12T08:59:59.524Z,997.04
2023-02-12T09:00:59.533Z,997.02
2023-02-12T09:01:59.502Z,997.06
2023-02-12T09:02:59.506Z,997.05
2023-02-12T09:03:59.470Z,997.07
2023-02-12T09:04:59.458Z,997.05
2023-02-12T09:05:59.445Z,997.02
2023-02-12T09:06:59.444Z,996.99
2023-02-12T09:07:59.412Z,996.98
2023-02-12T09:08:59.404Z,996.96
2023-02-12T09:09:59.385Z,996.90
2023-02-12T09:10:59.367Z,996.88
2023-02-12T09:11:59.364Z,996.88
2023-02-12T09:12:59.352Z,996.88
2023-02-12T09:13:59.336Z,996.86
2023-02-12T09:14:59.320Z,996.79
2023-02-12T09:15:59.594Z,996.85
2023-02-12T09:16:59.399Z,996.86
2023-02-12T09:17:59.283Z,996.91
2023-02-12T09:18:59.295Z,996.92
2023-02-12T09:19:59.249Z,996.93
2023-02-12T09:20:59.233Z,996.95
2023-02-12T09:21:59.232Z,996.89
2023-02-12T09:22:59.205Z,996.93
2023-02-12T09:23:59.196Z,996.87
2023-02-12T09:24:59.184Z,996.88
2023-02-12T09:25:59.213Z,996.90
2023-02-12T09:26:59.158Z,996.88
2023-02-12T09:27:59.197Z,996.83
2023-02-12T09:28:59.136Z,996.97
2023-02-12T09:29:59.130Z,996.97
2023-02-12T09:30:59.270Z,996.96
2023-02-12T09:31:59.155Z,996.93
2023-02-12T09:32:59.088Z,996.95
2023-02-12T09:33:59.061Z,996.93
2023-02-12T09:34:59.084Z,996.96
2023-02-12T09:35:59.030Z,996.93
2023-02-12T09:36:59.015Z,996.97
2023-02-12T09:37:59.023Z,996.89
2023-02-12T09:38:58.991Z,996.96
2023-02-12T09:39:58.983Z,996.92
2023-02-12T09:40:58.971Z,996.85
2023-02-12T09:41:58.955Z,996.96
2023-02-12T09:42:58.940Z,996.93
2023-02-12T09:43:58.934Z,996.94
2023-02-12T09:44:58.907Z,996.91
2023-02-12T09:45:59.351Z,996.93
2023-02-12T09:46:58.907Z,996.95
2023-02-12T09:47:58.873Z,996.94
2023-02-12T09:48:58.860Z,996.98
2023-02-12T09:49:58.850Z,996.97
2023-02-12T09:50:58.858Z,997.03
2023-02-12T09:51:58.820Z,997.00
2023-02-12T09:52:58.810Z,996.98
2023-02-12T09:53:58.798Z,997.08
2023-02-12T09:54:58.796Z,996.95
2023-02-12T09:55:58.830Z,996.92
2023-02-12T09:56:58.954Z,997.00
2023-02-12T09:57:58.739Z,997.01
2023-02-12T09:58:58.729Z,996.98
2023-02-12T09:59:58.714Z,997.11
2023-02-12T10:00:58.705Z,997.06
2023-02-12T10:01:58.690Z,997.03
2023-02-12T10:02:58.668Z,997.03
2023-02-12T10:03:58.700Z,996.95
2023-02-12T10:05:01.947Z,997.00
2023-02-12T10:05:58.901Z,996.97
2023-02-12T10:06:58.650Z,997.01
2023-02-12T10:07:58.610Z,996.98
2023-02-12T10:08:58.598Z,996.98
2023-02-12T10:09:58.584Z,997.01
2023-02-12T10:10:58.566Z,997.03
2023-02-12T10:11:58.552Z,997.03
2023-02-12T10:12:58.537Z,997.02
2023-02-12T10:13:58.523Z,996.98
2023-02-12T10:14:58.508Z,996.92
2023-02-12T10:15:59.044Z,996.96
2023-02-12T10:16:58.484Z,996.93
2023-02-12T10:17:58.475Z,996.91
2023-02-12T10:18:58.458Z,996.90
2023-02-12T10:19:58.446Z,996.91
2023-02-12T10:20:58.970Z,996.93
2023-02-12T10:21:58.418Z,996.91
2023-02-12T10:22:58.708Z,996.79
2023-02-12T10:23:58.389Z,996.80
2023-02-12T10:24:58.370Z,996.85
2023-02-12T10:25:58.854Z,996.87
2023-02-12T10:26:58.343Z,996.82
2023-02-12T10:27:58.359Z,996.82
2023-02-12T10:28:58.316Z,996.83
2023-02-12T10:29:58.303Z,996.79
2023-02-12T10:30:58.400Z,996.88
2023-02-12T10:32:58.276Z,996.81
2023-02-12T10:33:58.251Z,996.76
2023-02-12T10:34:58.241Z,996.85
2023-02-12T10:35:58.576Z,996.79
2023-02-12T10:36:58.210Z,996.73
2023-02-12T10:37:58.260Z,996.74
2023-02-12T10:38:58.212Z,996.79
2023-02-12T10:39:58.175Z,996.77
2023-02-12T10:40:58.149Z,996.74
2023-02-12T10:41:58.134Z,996.74
2023-02-12T10:42:58.131Z,996.68
2023-02-12T10:43:58.113Z,996.72
2023-02-12T10:44:58.096Z,996.71
2023-02-12T10:45:58.570Z,996.66
2023-02-12T10:46:58.113Z,996.67
2023-02-12T10:47:58.113Z,996.66
2023-02-12T10:48:58.046Z,996.59
2023-02-12T10:49:58.049Z,996.65
2023-02-12T10:50:58.238Z,996.56
2023-02-12T10:51:58.015Z,996.60
2023-02-12T10:52:58.047Z,996.56
2023-02-12T10:53:58.004Z,996.64
2023-02-12T10:54:57.995Z,996.61
2023-02-12T10:55:58.314Z,996.62
2023-02-12T10:56:58.098Z,996.65
2023-02-12T10:57:57.957Z,996.62
2023-02-12T10:58:57.925Z,996.59
2023-02-12T10:59:57.904Z,996.55
2023-02-12T11:00:57.893Z,996.55
2023-02-12T11:01:57.958Z,996.49
2023-02-12T11:02:57.869Z,996.51
2023-02-12T11:03:57.853Z,996.61
2023-02-12T11:04:57.852Z,996.57
2023-02-12T11:05:58.156Z,996.55
2023-02-12T11:06:57.812Z,996.56
2023-02-12T11:07:57.785Z,996.52
2023-02-12T11:08:57.783Z,996.53
2023-02-12T11:09:57.820Z,996.57
2023-02-12T11:10:57.770Z,996.53
2023-02-12T11:11:57.725Z,996.47
2023-02-12T11:12:57.743Z,996.55
2023-02-12T11:13:57.715Z,996.47
2023-02-12T11:14:57.690Z,996.42
2023-02-12T11:15:58.117Z,996.40
2023-02-12T11:16:57.670Z,996.35
2023-02-12T11:17:57.647Z,996.43
2023-02-12T11:18:57.636Z,996.44
2023-02-12T11:19:57.624Z,996.43
2023-02-12T11:20:57.601Z,996.38
2023-02-12T11:21:57.591Z,996.36
2023-02-12T11:22:57.587Z,996.34
2023-02-12T11:23:57.575Z,996.39
2023-02-12T11:24:57.562Z,996.33
2023-02-12T11:25:57.997Z,996.36
2023-02-12T11:26:57.562Z,996.38
2023-02-12T11:27:57.571Z,996.35
2023-02-12T11:28:57.627Z,996.39
2023-02-12T11:29:57.479Z,996.29
2023-02-12T11:30:57.551Z,996.39
2023-02-12T11:31:57.565Z,996.38
2023-02-12T11:32:57.464Z,996.32
2023-02-12T11:33:57.447Z,996.34
2023-02-12T11:34:57.416Z,996.29
2023-02-12T11:35:57.402Z,996.33
2023-02-12T11:36:57.395Z,996.25
2023-02-12T11:37:57.379Z,996.28
2023-02-12T11:38:57.392Z,996.25
2023-02-12T11:39:57.352Z,996.29
2023-02-12T11:40:57.608Z,996.24
2023-02-12T11:41:57.346Z,996.17
2023-02-12T11:42:57.345Z,996.30
2023-02-12T11:43:57.401Z,996.25
2023-02-12T11:44:57.284Z,996.21
2023-02-12T11:45:57.290Z,996.21
2023-02-12T11:46:57.306Z,996.18
2023-02-12T11:47:57.259Z,996.24
2023-02-12T11:48:57.234Z,996.26
2023-02-12T11:49:57.218Z,996.19
2023-02-12T11:50:57.214Z,996.20
2023-02-12T11:51:57.202Z,996.24
2023-02-12T11:52:57.180Z,996.20
2023-02-12T11:53:57.165Z,996.26
2023-02-12T11:54:57.145Z,996.24
2023-02-12T11:55:57.125Z,996.18
2023-02-12T11:56:57.410Z,996.18
2023-02-12T11:57:57.100Z,996.14
2023-02-12T11:58:57.114Z,996.11
2023-02-12T11:59:57.087Z,996.14
2023-02-12T12:00:57.064Z,996.19
2023-02-12T12:01:57.093Z,996.17
2023-02-12T12:02:57.085Z,996.09
2023-02-12T12:03:57.019Z,996.07
2023-02-12T12:04:57.008Z,995.92
2023-02-12T12:05:57.396Z,995.91
2023-02-12T12:06:56.989Z,995.93
2023-02-12T12:07:57.049Z,995.93
2023-02-12T12:08:56.953Z,995.90
2023-02-12T12:09:56.944Z,995.88
2023-02-12T12:10:56.936Z,995.92
2023-02-12T12:11:56.939Z,995.91
2023-02-12T12:12:56.909Z,995.94
2023-02-12T12:13:56.941Z,995.87
2023-02-12T12:14:56.929Z,995.83
2023-02-12T12:15:57.388Z,995.73
2023-02-12T12:16:56.863Z,995.68
2023-02-12T12:17:56.837Z,995.71
2023-02-12T12:18:56.893Z,995.66
2023-02-12T12:19:56.817Z,995.68
2023-02-12T12:20:56.882Z,995.72
2023-02-12T12:21:56.777Z,995.69
2023-02-12T12:22:56.766Z,995.71
2023-02-12T12:23:56.764Z,995.78
2023-02-12T12:24:56.885Z,995.83
2023-02-12T12:25:57.227Z,995.86
2023-02-12T12:26:56.820Z,995.85
2023-02-12T12:27:56.752Z,995.89
2023-02-12T12:28:56.766Z,995.94